Pagrindinis puslapis
METAR-TAF:

METAR-TAF

Oro uostai :

Dakaras, Senegalas

platuma: 14-44N, ilguma: 017-30W, Aukštis: 27 m

Dabartinis oras

Ataskaita buvo paskelbta 1 valandą ir 29 minutes, ne 21:00 UTC
Vėjas 12 kt iš Pietryčių
Temperatūra 24°C
Drėgmė 94%
Slėgis 1013 hPa
Matomumas: 8000 m
Mažai debesys ne aukštis 1300 ft
lietus

METAR: GOOY 162100Z 14012KT 8000 -RA FEW013 24/23 Q1013

Laikas: 22:29 (22:29 UTC)

Prognozė

Ataskaita buvo paskelbta 4 valandos ir 59 minutes, ne 17:30 UTC
Prognozė galioja nuo 16 metu 18 UTC su 17 metu 24 UTC
Vėjas 12 kt iš Pietų/Pietryčių
Matomumas: 3500 m
Su prošvaistėmis ne aukštis 1500 ft
Mažai debesys ne aukštis 3000 ft, Liūtiniai kamuoliniai debesys.
perkūnija, lietus
Tapsmas
nuo 16 metu 20 UTC su 16 metu 22 UTC
Vėjas 10 kt iš Šiaurės Vakarų
Matomumas 10 km arba daugiau
nėra debesų žemiau 1500 m ir nėra kamuolinių lietaus debesų

TAF: GOOY 161730Z 1618/1724 16012KT 3500 TSRA BKN015 FEW030CB BECMG 1620/1622 32010KT CAVOK

Orai ataskaitas ir orų prognozės (METAR, TAF).

turimą stotys yra geltonos ir raudonos taškus žemėlapyje.

Perkelti pele per norėdami pamatyti stoties vardą.

Tada spustelėkite, norėdami matyti oro stebėjimo ir prognozės.

Norėdami pakeisti žemėlapį: spustelėkite ant žalios mygtukų su juodo kryžiaus žemyn,; žalią mygtuką su brūkšneliu, jei norite nutolinti; arba žalių rodyklių gretimoms žemėlapius.


METAR-TAF: